Time;durP1;ratioP1;P1;durP2;ratioP2;P2;SDS_P1;SDS_P2;PMS_P1;PMS_P2;Temp;Humidity;BMP_temperature;BMP_pressure;BME280_temperature;BME280_humidity;BME280_pressure;Samples;Min_cycle;Max_cycle;Signal;HPM_P1;HPM_P2
2022/12/04 00:02:07;;;;;;;;;;;;;;;;;;5094028;28;7086;-64
2022/12/04 00:04:33;;;;;;;;;;;;;;;;;;5093985;28;7133;-64
2022/12/04 00:06:58;;;;;;;;;;;;;;;;;;5094643;28;6966;-64
2022/12/04 00:12:27;;;;;;;;;;;;;;;;;;5097233;28;7045;-70
2022/12/04 00:14:53;;;;;;;;;;;;;;;;;;5079234;28;8573;-63
2022/12/04 00:17:26;;;;;;;;;;;;;;;;;;5097399;28;7372;-64
2022/12/04 00:19:51;;;;;;;;;;;;;;;;;;5097458;28;7049;-63
2022/12/04 00:22:19;;;;;;;;;;;;;;;;;;5097166;28;7123;-64
2022/12/04 00:24:45;;;;;;;;;;;;;;;;;;5097073;28;7178;-64
2022/12/04 00:27:11;;;;;;;;;;;;;;;;;;5097399;28;7088;-64
2022/12/04 00:29:37;;;;;;;;;;;;;;;;;;5097223;28;7144;-64
2022/12/04 00:32:04;;;;;;;;;;;;;;;;;;5080475;28;6969;-64
2022/12/04 00:34:30;;;;;;;;;;;;;;;;;;5097030;28;7022;-64
2022/12/04 00:36:56;;;;;;;;;;;;;;;;;;5097032;28;7117;-64
2022/12/04 00:39:36;;;;;;;;;;;;;;;;;;5096889;28;7103;-64
2022/12/04 00:42:02;;;;;;;;;;;;;;;;;;5096700;28;7030;-64
2022/12/04 00:44:27;;;;;;;;;;;;;;;;;;5097720;28;7204;-64
2022/12/04 00:46:53;;;;;;;;;;;;;;;;;;5096625;28;8009;-64
2022/12/04 00:49:18;;;;;;;;;;;;;;;;;;5096704;28;6992;-64
2022/12/04 00:51:44;;;;;;;;;;;;;;;;;;5096717;28;7114;-63
2022/12/04 00:54:10;;;;;;;;;;;;;;;;;;5095003;28;7141;-63
2022/12/04 00:56:38;;;;;;;;;;;;;;;;;;5096682;28;7089;-64
2022/12/04 00:59:03;;;;;;;;;;;;;;;;;;5096625;28;7198;-64
2022/12/04 01:04:32;;;;;;;;;;;;;;;;;;5096461;28;6673;-63
2022/12/04 01:06:57;;;;;;;;;;;;;;;;;;5096554;28;7318;-63
2022/12/04 01:09:23;;;;;;;;;;;;;;;;;;5078098;28;8411;-63
2022/12/04 01:11:49;;;;;;;;;;;;;;;;;;5096625;28;6924;-64
2022/12/04 01:14:14;;;;;;;;;;;;;;;;;;5096240;28;6936;-64
2022/12/04 01:16:40;;;;;;;;;;;;;;;;;;5096421;28;7178;-64
2022/12/04 01:19:07;;;;;;;;;;;;;;;;;;5096879;28;7150;-64
2022/12/04 01:21:34;;;;;;;;;;;;;;;;;;5096401;28;7120;-63
2022/12/04 01:24:00;;;;;;;;;;;;;;;;;;5096170;28;7157;-64
2022/12/04 01:26:34;;;;;;;;;;;;;;;;;;5096524;28;7132;-64
2022/12/04 01:29:00;;;;;;;;;;;;;;;;;;5095830;28;7152;-63
2022/12/04 01:31:31;;;;;;;;;;;;;;;;;;5096166;28;6935;-64
2022/12/04 01:33:57;;;;;;;;;;;;;;;;;;5096055;28;7543;-64
2022/12/04 01:36:25;;;;;;;;;;;;;;;;;;5096071;28;7136;-63
2022/12/04 01:38:51;;;;;;;;;;;;;;;;;;5095507;28;8362;-64
2022/12/04 01:41:19;;;;;;;;;;;;;;;;;;5096588;28;7108;-63
2022/12/04 01:43:45;;;;;;;;;;;;;;;;;;5095716;28;7494;-63
2022/12/04 01:46:11;;;;;;;;;;;;;;;;;;5095601;28;7098;-64
2022/12/04 01:48:41;;;;;;;;;;;;;;;;;;5095550;28;7173;-64
2022/12/04 01:51:15;;;;;;;;;;;;;;;;;;5095646;28;7111;-63
2022/12/04 01:54:05;;;;;;;;;;;;;;;;;;5091341;28;7184;-64
2022/12/04 01:56:36;;;;;;;;;;;;;;;;;;5055294;28;7391;-63
2022/12/04 01:59:02;;;;;;;;;;;;;;;;;;5055187;28;7001;-64
2022/12/04 02:01:35;;;;;;;;;;;;;;;;;;5055108;28;7086;-63
2022/12/04 02:04:01;;;;;;;;;;;;;;;;;;5054917;28;7000;-64
2022/12/04 02:07:02;;;;;;;;;;;;;;;;;;5055865;28;7306;-63
2022/12/04 02:09:29;;;;;;;;;;;;;;;;;;5055067;28;7025;-63
2022/12/04 02:12:31;;;;;;;;;;;;;;;;;;5055034;28;7448;-64
2022/12/04 02:15:17;;;;;;;;;;;;;;;;;;5054775;28;7117;-64
2022/12/04 02:17:43;;;;;;;;;;;;;;;;;;5054365;28;6975;-63
2022/12/04 02:20:22;;;;;;;;;;;;;;;;;;5054635;28;6960;-63
2022/12/04 02:22:51;;;;;;;;;;;;;;;;;;5054855;28;7267;-63
2022/12/04 02:28:27;;;;;;;;;;;;;;;;;;5054797;28;6940;-64
2022/12/04 02:31:07;;;;;;;;;;;;;;;;;;5054133;28;7231;-64
2022/12/04 02:33:43;;;;;;;;;;;;;;;;;;5053342;28;6876;-64
2022/12/04 02:36:12;;;;;;;;;;;;;;;;;;5054609;28;7618;-63
2022/12/04 02:38:42;;;;;;;;;;;;;;;;;;5054655;28;7012;-64
2022/12/04 02:41:08;;;;;;;;;;;;;;;;;;5054197;28;7408;-63
2022/12/04 02:43:53;;;;;;;;;;;;;;;;;;5054519;28;7245;-63
2022/12/04 02:46:58;;;;;;;;;;;;;;;;;;5054474;28;7127;-63
2022/12/04 02:49:29;;;;;;;;;;;;;;;;;;5054591;28;7187;-63
2022/12/04 02:52:14;;;;;;;;;;;;;;;;;;5054383;28;7136;-64
2022/12/04 02:54:59;;;;;;;;;;;;;;;;;;5067388;28;7017;-63
2022/12/04 02:57:32;;;;;;;;;;;;;;;;;;5074341;28;7063;-63
2022/12/04 03:00:12;;;;;;;;;;;;;;;;;;5074378;28;7167;-63
2022/12/04 03:02:43;;;;;;;;;;;;;;;;;;5074117;28;6970;-63
2022/12/04 03:05:14;;;;;;;;;;;;;;;;;;5072979;28;7275;-63
2022/12/04 03:07:53;;;;;;;;;;;;;;;;;;5074510;28;7087;-63
2022/12/04 03:10:32;;;;;;;;;;;;;;;;;;5074142;28;7161;-63
2022/12/04 03:13:03;;;;;;;;;;;;;;;;;;5074369;28;7167;-63
2022/12/04 03:15:34;;;;;;;;;;;;;;;;;;5073380;28;7066;-63
2022/12/04 03:18:03;;;;;;;;;;;;;;;;;;5073982;28;8257;-63
2022/12/04 03:20:32;;;;;;;;;;;;;;;;;;5074121;28;7397;-63
2022/12/04 03:23:04;;;;;;;;;;;;;;;;;;5074391;28;7204;-63
2022/12/04 03:25:38;;;;;;;;;;;;;;;;;;5074404;28;6932;-64
2022/12/04 03:28:09;;;;;;;;;;;;;;;;;;5074193;28;6993;-64
2022/12/04 03:30:39;;;;;;;;;;;;;;;;;;5073964;28;7165;-63
2022/12/04 03:33:15;;;;;;;;;;;;;;;;;;5074112;28;6987;-63
2022/12/04 03:35:52;;;;;;;;;;;;;;;;;;5073706;28;6945;-64
2022/12/04 03:38:28;;;;;;;;;;;;;;;;;;5074115;28;7205;-68
2022/12/04 03:46:54;;;;;;;;;;;;;;;;;;5077840;28;7051;-63
2022/12/04 03:49:27;;;;;;;;;;;;;;;;;;5077772;28;7212;-63
2022/12/04 03:52:09;;;;;;;;;;;;;;;;;;5078609;28;7122;-63
2022/12/04 03:57:42;;;;;;;;;;;;;;;;;;5077676;28;6688;-63
2022/12/04 04:00:12;;;;;;;;;;;;;;;;;;5076030;28;8401;-63
2022/12/04 04:02:44;;;;;;;;;;;;;;;;;;5077508;28;6943;-63
2022/12/04 04:05:12;;;;;;;;;;;;;;;;;;5077439;28;6947;-63
2022/12/04 04:10:51;;;;;;;;;;;;;;;;;;5076963;28;6974;-64
2022/12/04 04:25:08;;;;;;;;;;;;;;;;;;5077022;28;6804;-63
2022/12/04 04:27:34;;;;;;;;;;;;;;;;;;5076996;28;7081;-63
2022/12/04 04:30:00;;;;;;;;;;;;;;;;;;5076914;28;7043;-68
2022/12/04 04:32:43;;;;;;;;;;;;;;;;;;5077081;28;7349;-68
2022/12/04 04:35:15;;;;;;;;;;;;;;;;;;5077198;28;6966;-68
2022/12/04 04:40:43;;;;;;;;;;;;;;;;;;5076534;28;6700;-68
2022/12/04 04:49:23;;;;;;;;;;;;;;;;;;5076168;28;6705;-68
2022/12/04 04:51:49;;;;;;;;;;;;;;;;;;5076463;28;6972;-68
2022/12/04 04:54:26;;;;;;;;;;;;;;;;;;5075200;28;6958;-69
2022/12/04 04:57:15;;;;;;;;;;;;;;;;;;5075720;28;7543;-63
2022/12/04 04:59:44;;;;;;;;;;;;;;;;;;5076266;28;6941;-63
2022/12/04 05:02:10;;;;;;;;;;;;;;;;;;5075164;28;7049;-63
2022/12/04 05:04:35;;;;;;;;;;;;;;;;;;5076258;28;7211;-64
2022/12/04 05:07:19;;;;;;;;;;;;;;;;;;5076338;28;7068;-63
2022/12/04 05:09:45;;;;;;;;;;;;;;;;;;5074838;28;7117;-64
2022/12/04 05:12:29;;;;;;;;;;;;;;;;;;5074512;28;7261;-63
2022/12/04 05:15:02;;;;;;;;;;;;;;;;;;5075222;28;6810;-63
2022/12/04 05:17:28;;;;;;;;;;;;;;;;;;5075270;28;7359;-63
2022/12/04 05:19:55;;;;;;;;;;;;;;;;;;5075944;28;6940;-63
2022/12/04 05:22:36;;;;;;;;;;;;;;;;;;5075955;28;7152;-63
2022/12/04 05:25:03;;;;;;;;;;;;;;;;;;5075915;28;7150;-63
2022/12/04 05:27:37;;;;;;;;;;;;;;;;;;5072684;28;6809;-63
2022/12/04 05:30:03;;;;;;;;;;;;;;;;;;5074766;28;7072;-63
2022/12/04 05:32:29;;;;;;;;;;;;;;;;;;5075727;28;7904;-63
2022/12/04 05:35:06;;;;;;;;;;;;;;;;;;5075759;28;7189;-64
2022/12/04 05:37:35;;;;;;;;;;;;;;;;;;5075335;28;7370;-63
2022/12/04 05:40:01;;;;;;;;;;;;;;;;;;5075589;28;7288;-63
2022/12/04 05:42:29;;;;;;;;;;;;;;;;;;5075589;28;7100;-63
2022/12/04 05:44:54;;;;;;;;;;;;;;;;;;5075206;28;6949;-63
2022/12/04 05:47:20;;;;;;;;;;;;;;;;;;5075568;28;7348;-63
2022/12/04 05:49:59;;;;;;;;;;;;;;;;;;5075330;28;7198;-63
2022/12/04 05:52:25;;;;;;;;;;;;;;;;;;5075380;28;7062;-64
2022/12/04 05:54:51;;;;;;;;;;;;;;;;;;5070256;28;7229;-63
2022/12/04 05:57:16;;;;;;;;;;;;;;;;;;5075185;28;6935;-64
2022/12/04 06:00:04;;;;;;;;;;;;;;;;;;5075139;28;7134;-63
2022/12/04 06:02:32;;;;;;;;;;;;;;;;;;5075030;28;7137;-64
2022/12/04 06:04:58;;;;;;;;;;;;;;;;;;5074584;28;7126;-63
2022/12/04 06:07:24;;;;;;;;;;;;;;;;;;5075209;28;7139;-64
2022/12/04 06:09:49;;;;;;;;;;;;;;;;;;5075380;28;7145;-63
2022/12/04 06:12:15;;;;;;;;;;;;;;;;;;5074923;28;7031;-63
2022/12/04 06:14:40;;;;;;;;;;;;;;;;;;5074945;28;7108;-63
2022/12/04 06:19:58;;;;;;;;;;;;;;;;;;5075521;28;6996;-63
2022/12/04 06:22:37;;;;;;;;;;;;;;;;;;5074465;28;7008;-63
2022/12/04 06:25:03;;;;;;;;;;;;;;;;;;5074875;28;7712;-63
2022/12/04 06:27:29;;;;;;;;;;;;;;;;;;5074808;28;7168;-63
2022/12/04 06:30:02;;;;;;;;;;;;;;;;;;5074808;28;7151;-63
2022/12/04 06:32:28;;;;;;;;;;;;;;;;;;5074622;28;7191;-63
2022/12/04 06:34:54;;;;;;;;;;;;;;;;;;5074646;28;7323;-63
2022/12/04 06:37:21;;;;;;;;;;;;;;;;;;5074534;28;7042;-64
2022/12/04 06:39:47;;;;;;;;;;;;;;;;;;5074616;28;7291;-63
2022/12/04 06:42:20;;;;;;;;;;;;;;;;;;5074480;28;7046;-63
2022/12/04 06:44:57;;;;;;;;;;;;;;;;;;5075135;28;7292;-63
2022/12/04 06:47:23;;;;;;;;;;;;;;;;;;5073816;28;7072;-63
2022/12/04 06:49:49;;;;;;;;;;;;;;;;;;5074588;28;7120;-63
2022/12/04 06:52:25;;;;;;;;;;;;;;;;;;5074719;28;7018;-64
2022/12/04 06:54:51;;;;;;;;;;;;;;;;;;5073442;28;7081;-63
2022/12/04 06:57:17;;;;;;;;;;;;;;;;;;5074353;28;7177;-64
2022/12/04 06:59:42;;;;;;;;;;;;;;;;;;5074342;28;6997;-67
2022/12/04 07:02:08;;;;;;;;;;;;;;;;;;5074399;28;7207;-64
2022/12/04 07:04:34;;;;;;;;;;;;;;;;;;5073250;28;7172;-64
2022/12/04 07:07:11;;;;;;;;;;;;;;;;;;5074420;28;7142;-65
2022/12/04 07:09:37;;;;;;;;;;;;;;;;;;5074228;28;6973;-63
2022/12/04 07:12:02;;;;;;;;;;;;;;;;;;5073994;28;8181;-67
2022/12/04 07:14:28;;;;;;;;;;;;;;;;;;5077242;28;6852;-62
2022/12/04 07:17:04;;;;;;;;;;;;;;;;;;5076566;28;7048;-62
2022/12/04 07:19:30;;;;;;;;;;;;;;;;;;5077428;28;7012;-62
2022/12/04 07:21:55;;;;;;;;;;;;;;;;;;5078331;28;7336;-62
2022/12/04 07:24:21;;;;;;;;;;;;;;;;;;5078237;28;7462;-62
2022/12/04 07:26:46;;;;;;;;;;;;;;;;;;5077960;28;7141;-62
2022/12/04 07:29:12;;;;;;;;;;;;;;;;;;5078078;28;7445;-62
2022/12/04 07:34:42;;;;;;;;;;;;;;;;;;5078019;28;6948;-63
2022/12/04 07:37:07;;;;;;;;;;;;;;;;;;5078101;28;7147;-62
2022/12/04 07:39:33;;;;;;;;;;;;;;;;;;5078319;28;7206;-62
2022/12/04 07:41:58;;;;;;;;;;;;;;;;;;5097871;28;7289;-62
2022/12/04 07:50:18;;;;;;;;;;;;;;;;;;5097677;28;7141;-62
2022/12/04 07:52:43;;;;;;;;;;;;;;;;;;5097381;28;7978;-63
2022/12/04 07:55:08;;;;;;;;;;;;;;;;;;5097398;28;6903;-63
2022/12/04 07:57:51;;;;;;;;;;;;;;;;;;5097825;28;7141;-62
2022/12/04 08:00:17;;;;;;;;;;;;;;;;;;5088727;28;7821;-62
2022/12/04 08:08:49;;;;;;;;;;;;;;;;;;5077117;28;6960;-62
2022/12/04 08:11:17;;;;;;;;;;;;;;;;;;5075755;28;7031;-62
2022/12/04 08:13:43;;;;;;;;;;;;;;;;;;5075911;28;7198;-62
2022/12/04 08:16:10;;;;;;;;;;;;;;;;;;5077216;28;7329;-62
2022/12/04 08:18:35;;;;;;;;;;;;;;;;;;5082823;28;7177;-63
2022/12/04 08:21:06;;;;;;;;;;;;;;;;;;5096756;28;7049;-63
2022/12/04 08:23:32;;;;;;;;;;;;;;;;;;5097079;28;7135;-63
2022/12/04 08:25:59;;;;;;;;;;;;;;;;;;5097420;28;7044;-63
2022/12/04 08:28:25;;;;;;;;;;;;;;;;;;5096392;28;7258;-63
2022/12/04 08:30:50;;;;;;;;;;;;;;;;;;5096803;28;7151;-63
2022/12/04 08:33:16;;;;;;;;;;;;;;;;;;5089664;28;7224;-62
2022/12/04 08:35:42;;;;;;;;;;;;;;;;;;5076628;28;7287;-62
2022/12/04 08:38:07;;;;;;;;;;;;;;;;;;5076657;28;7434;-63
2022/12/04 08:40:33;;;;;;;;;;;;;;;;;;5086917;28;7123;-63
2022/12/04 08:42:58;;;;;;;;;;;;;;;;;;5096312;28;7008;-63
2022/12/04 08:45:25;;;;;;;;;;;;;;;;;;5096710;28;7144;-63
2022/12/04 08:47:51;;;;;;;;;;;;;;;;;;5096871;28;7129;-63
2022/12/04 08:50:16;;;;;;;;;;;;;;;;;;5096354;28;7026;-63
2022/12/04 08:52:42;;;;;;;;;;;;;;;;;;5096557;28;7056;-63
2022/12/04 08:55:08;;;;;;;;;;;;;;;;;;5095809;28;7156;-63
2022/12/04 08:57:33;;;;;;;;;;;;;;;;;;5077883;28;7069;-63
2022/12/04 08:59:59;;;;;;;;;;;;;;;;;;5095848;28;7119;-63
2022/12/04 09:02:24;;;;;;;;;;;;;;;;;;5096148;28;6954;-62
2022/12/04 09:04:50;;;;;;;;;;;;;;;;;;5096415;28;7211;-63
2022/12/04 09:07:16;;;;;;;;;;;;;;;;;;5096339;28;7141;-63
2022/12/04 09:09:41;;;;;;;;;;;;;;;;;;5096083;28;7269;-63
2022/12/04 09:12:07;;;;;;;;;;;;;;;;;;5077954;28;6964;-63
2022/12/04 09:14:33;;;;;;;;;;;;;;;;;;5096392;28;7175;-63
2022/12/04 09:16:58;;;;;;;;;;;;;;;;;;5096179;28;7111;-63
2022/12/04 09:19:24;;;;;;;;;;;;;;;;;;5095118;28;7247;-63
2022/12/04 09:21:49;;;;;;;;;;;;;;;;;;5095700;28;6859;-63
2022/12/04 09:24:15;;;;;;;;;;;;;;;;;;5095905;28;7133;-64
2022/12/04 09:26:41;;;;;;;;;;;;;;;;;;5096009;28;7155;-63
2022/12/04 09:29:06;;;;;;;;;;;;;;;;;;5095931;28;7119;-63
2022/12/04 09:31:33;;;;;;;;;;;;;;;;;;5095574;28;7494;-63
2022/12/04 09:34:00;;;;;;;;;;;;;;;;;;5095676;28;6976;-63
2022/12/04 09:36:26;;;;;;;;;;;;;;;;;;5095706;28;7249;-63
2022/12/04 09:38:53;;;;;;;;;;;;;;;;;;5095669;28;7270;-63
2022/12/04 09:41:37;;;;;;;;;;;;;;;;;;5095141;28;7187;-63
2022/12/04 09:44:08;;;;;;;;;;;;;;;;;;5095250;28;6985;-63
2022/12/04 09:46:36;;;;;;;;;;;;;;;;;;5095547;28;7270;-63
2022/12/04 09:49:09;;;;;;;;;;;;;;;;;;5095529;28;7021;-63
2022/12/04 09:51:37;;;;;;;;;;;;;;;;;;5094868;28;8284;-63
2022/12/04 09:54:24;;;;;;;;;;;;;;;;;;5095331;28;7125;-63
2022/12/04 09:56:53;;;;;;;;;;;;;;;;;;5095462;28;6969;-63
2022/12/04 09:59:20;;;;;;;;;;;;;;;;;;5095291;28;6815;-62
2022/12/04 10:01:50;;;;;;;;;;;;;;;;;;5095331;28;6988;-63
2022/12/04 10:04:17;;;;;;;;;;;;;;;;;;5095111;28;6963;-63
2022/12/04 10:06:50;;;;;;;;;;;;;;;;;;5095163;28;6932;-63
2022/12/04 10:09:27;;;;;;;;;;;;;;;;;;5094905;28;7187;-63
2022/12/04 10:12:01;;;;;;;;;;;;;;;;;;5094914;28;6925;-63
2022/12/04 10:14:46;;;;;;;;;;;;;;;;;;5094939;28;7480;-64
2022/12/04 10:17:21;;;;;;;;;;;;;;;;;;5095063;28;7598;-64
2022/12/04 10:20:01;;;;;;;;;;;;;;;;;;5094217;28;7143;-64
2022/12/04 10:22:32;;;;;;;;;;;;;;;;;;5094683;28;6966;-63
2022/12/04 10:25:03;;;;;;;;;;;;;;;;;;5094980;28;7075;-69
2022/12/04 10:27:32;;;;;;;;;;;;;;;;;;5094356;28;7080;-63
2022/12/04 10:30:12;;;;;;;;;;;;;;;;;;5094821;28;7173;-63
2022/12/04 10:32:39;;;;;;;;;;;;;;;;;;5095393;28;7165;-63
2022/12/04 10:35:16;;;;;;;;;;;;;;;;;;5094540;28;7523;-64
2022/12/04 10:37:45;;;;;;;;;;;;;;;;;;5094747;28;7048;-64
2022/12/04 10:40:19;;;;;;;;;;;;;;;;;;5094553;28;7276;-64
2022/12/04 10:42:52;;;;;;;;;;;;;;;;;;5094483;28;7845;-63
2022/12/04 10:45:19;;;;;;;;;;;;;;;;;;5076130;28;7180;-64
2022/12/04 10:47:48;;;;;;;;;;;;;;;;;;5094728;28;7670;-64
2022/12/04 10:50:16;;;;;;;;;;;;;;;;;;5094316;28;7061;-64
2022/12/04 10:52:41;;;;;;;;;;;;;;;;;;5094355;28;6981;-64
2022/12/04 10:55:07;;;;;;;;;;;;;;;;;;5094369;28;7055;-63
2022/12/04 11:00:36;;;;;;;;;;;;;;;;;;5093784;28;6677;-64
2022/12/04 11:03:07;;;;;;;;;;;;;;;;;;5094338;28;6944;-65
2022/12/04 11:05:33;;;;;;;;;;;;;;;;;;5094276;28;7027;-63
2022/12/04 11:08:02;;;;;;;;;;;;;;;;;;5094485;28;7085;-64
2022/12/04 11:10:41;;;;;;;;;;;;;;;;;;5094213;28;7416;-64
2022/12/04 11:13:10;;;;;;;;;;;;;;;;;;5094366;28;7186;-64
2022/12/04 11:15:42;;;;;;;;;;;;;;;;;;5094160;28;7187;-64
2022/12/04 11:18:14;;;;;;;;;;;;;;;;;;5094190;28;7205;-64
2022/12/04 11:20:43;;;;;;;;;;;;;;;;;;5093804;28;6819;-64
2022/12/04 11:23:13;;;;;;;;;;;;;;;;;;5094210;28;6940;-64
2022/12/04 11:25:45;;;;;;;;;;;;;;;;;;5094086;28;7016;-64
2022/12/04 11:28:16;;;;;;;;;;;;;;;;;;5094389;28;7163;-65
2022/12/04 11:30:46;;;;;;;;;;;;;;;;;;5094061;28;7172;-64
2022/12/04 11:33:19;;;;;;;;;;;;;;;;;;5094452;28;7066;-64
2022/12/04 11:35:51;;;;;;;;;;;;;;;;;;5093829;28;7104;-64
2022/12/04 11:38:17;;;;;;;;;;;;;;;;;;5094196;28;6940;-64
2022/12/04 11:40:51;;;;;;;;;;;;;;;;;;5093626;28;7997;-64
2022/12/04 11:43:18;;;;;;;;;;;;;;;;;;5094094;28;7164;-64
2022/12/04 11:45:57;;;;;;;;;;;;;;;;;;5093967;28;7203;-64
2022/12/04 11:48:24;;;;;;;;;;;;;;;;;;5094032;28;6823;-64
2022/12/04 11:50:55;;;;;;;;;;;;;;;;;;5093773;28;7465;-64
2022/12/04 11:53:28;;;;;;;;;;;;;;;;;;5092621;28;7324;-64
2022/12/04 11:56:12;;;;;;;;;;;;;;;;;;5093750;28;7186;-64
2022/12/04 11:58:56;;;;;;;;;;;;;;;;;;5094027;28;7166;-64
2022/12/04 12:01:40;;;;;;;;;;;;;;;;;;5093372;28;8218;-64
2022/12/04 12:04:24;;;;;;;;;;;;;;;;;;5096019;28;6941;-64
2022/12/04 12:07:02;;;;;;;;;;;;;;;;;;5098232;28;7185;-64
2022/12/04 12:09:46;;;;;;;;;;;;;;;;;;5097948;28;7078;-64
2022/12/04 12:12:24;;;;;;;;;;;;;;;;;;5097432;28;7151;-64
2022/12/04 12:14:58;;;;;;;;;;;;;;;;;;5097268;28;7098;-64
2022/12/04 12:17:32;;;;;;;;;;;;;;;;;;5097377;28;6983;-64
2022/12/04 12:20:19;;;;;;;;;;;;;;;;;;5096812;28;7427;-65
2022/12/04 12:22:48;;;;;;;;;;;;;;;;;;5097254;28;6952;-64
2022/12/04 12:25:26;;;;;;;;;;;;;;;;;;5097030;28;7134;-64
2022/12/04 12:27:52;;;;;;;;;;;;;;;;;;5097307;28;6959;-64
2022/12/04 12:30:23;;;;;;;;;;;;;;;;;;5096793;28;7187;-64
2022/12/04 12:32:54;;;;;;;;;;;;;;;;;;5097084;28;7150;-64
2022/12/04 12:35:38;;;;;;;;;;;;;;;;;;5096644;28;7075;-64
2022/12/04 12:38:09;;;;;;;;;;;;;;;;;;5096866;28;7266;-64
2022/12/04 12:40:45;;;;;;;;;;;;;;;;;;5096693;28;6951;-64
2022/12/04 12:43:13;;;;;;;;;;;;;;;;;;5097035;28;6936;-64
2022/12/04 12:45:42;;;;;;;;;;;;;;;;;;5096878;28;7232;-64
2022/12/04 12:48:30;;;;;;;;;;;;;;;;;;5096847;28;7158;-65
2022/12/04 12:51:23;;;;;;;;;;;;;;;;;;5087944;28;6953;-63
2022/12/04 12:53:52;;;;;;;;;;;;;;;;;;5096688;28;7062;-65
2022/12/04 12:56:24;;;;;;;;;;;;;;;;;;5096523;28;7149;-64
2022/12/04 12:58:57;;;;;;;;;;;;;;;;;;5096817;28;7490;-64
2022/12/04 13:01:33;;;;;;;;;;;;;;;;;;5096329;28;7176;-64
2022/12/04 13:04:16;;;;;;;;;;;;;;;;;;5096543;28;6997;-64
2022/12/04 13:06:44;;;;;;;;;;;;;;;;;;5096639;28;7046;-64
2022/12/04 13:09:32;;;;;;;;;;;;;;;;;;5096455;28;7049;-64
2022/12/04 13:12:02;;;;;;;;;;;;;;;;;;5095849;28;7182;-64
2022/12/04 13:14:27;;;;;;;;;;;;;;;;;;5088999;28;6933;-64
2022/12/04 13:16:59;;;;;;;;;;;;;;;;;;5075773;28;7172;-65
2022/12/04 13:19:59;;;;;;;;;;;;;;;;;;5077367;28;7416;-64
2022/12/04 13:26:02;;;;;;;;;;;;;;;;;;5014155;28;6713;-64
2022/12/04 13:28:50;;;;;;;;;;;;;;;;;;5013753;28;7028;-64
2022/12/04 13:31:34;;;;;;;;;;;;;;;;;;5013869;28;7408;-64
2022/12/04 13:40:13;;;;;;;;;;;;;;;;;;5013324;28;6957;-64
2022/12/04 13:43:01;;;;;;;;;;;;;;;;;;5013520;28;7147;-64
2022/12/04 13:45:31;;;;;;;;;;;;;;;;;;5013404;28;7013;-64
2022/12/04 13:51:05;;;;;;;;;;;;;;;;;;5013034;28;6749;-63
2022/12/04 13:56:52;;;;;;;;;;;;;;;;;;5013170;28;6918;-63
2022/12/04 13:59:29;;;;;;;;;;;;;;;;;;5077227;28;7171;-63
2022/12/04 14:02:04;;;;;;;;;;;;;;;;;;5095453;28;7147;-63
2022/12/04 14:04:45;;;;;;;;;;;;;;;;;;5095761;28;7144;-64
2022/12/04 14:10:36;;;;;;;;;;;;;;;;;;5032958;28;6911;-63
2022/12/04 14:13:25;;;;;;;;;;;;;;;;;;5032827;28;8150;-64
2022/12/04 14:18:59;;;;;;;;;;;;;;;;;;4954151;28;6781;-64
2022/12/04 14:21:47;;;;;;;;;;;;;;;;;;4954714;28;7157;-64
2022/12/04 14:24:17;;;;;;;;;;;;;;;;;;4954595;28;7094;-64
2022/12/04 14:32:51;;;;;;;;;;;;;;;;;;4954625;28;6701;-63
2022/12/04 14:35:22;;;;;;;;;;;;;;;;;;4954480;28;7222;-64
2022/12/04 14:37:56;;;;;;;;;;;;;;;;;;4954396;28;7343;-63
2022/12/04 14:40:43;;;;;;;;;;;;;;;;;;4968354;28;6998;-64
2022/12/04 14:43:18;;;;;;;;;;;;;;;;;;5013077;28;7070;-64
2022/12/04 14:51:55;;;;;;;;;;;;;;;;;;5012642;28;7052;-63
2022/12/04 14:54:40;;;;;;;;;;;;;;;;;;5012804;28;7123;-64
2022/12/04 14:57:08;;;;;;;;;;;;;;;;;;5094093;28;6913;-64
2022/12/04 14:59:51;;;;;;;;;;;;;;;;;;5094624;28;7171;-64
2022/12/04 15:02:41;;;;;;;;;;;;;;;;;;5094372;28;7126;-63
2022/12/04 15:05:29;;;;;;;;;;;;;;;;;;5086209;28;7177;-64
2022/12/04 15:08:04;;;;;;;;;;;;;;;;;;5094482;28;6964;-64
2022/12/04 15:13:27;;;;;;;;;;;;;;;;;;5092335;28;6947;-64
2022/12/04 15:18:57;;;;;;;;;;;;;;;;;;5067459;28;6696;-64
2022/12/04 15:24:44;;;;;;;;;;;;;;;;;;5074275;28;6925;-64
2022/12/04 15:27:11;;;;;;;;;;;;;;;;;;5074046;28;7158;-64
2022/12/04 15:29:47;;;;;;;;;;;;;;;;;;5073976;28;7430;-63
2022/12/04 15:32:15;;;;;;;;;;;;;;;;;;5073600;28;7112;-64
2022/12/04 15:34:51;;;;;;;;;;;;;;;;;;5074124;28;7103;-64
2022/12/04 15:37:30;;;;;;;;;;;;;;;;;;5075029;28;7318;-64
2022/12/04 15:39:57;;;;;;;;;;;;;;;;;;5077919;28;7141;-64
2022/12/04 15:42:23;;;;;;;;;;;;;;;;;;5117411;22;7092;-68
2022/12/04 15:44:51;;;;;;;;;;;;;;;;;;5077692;28;7025;-68
2022/12/04 15:47:22;;;;;;;;;;;;;;;;;;5077382;28;8272;-67
2022/12/04 15:50:15;;;;;;;;;;;;;;;;;;5077752;28;7384;-67
2022/12/04 15:53:07;;;;;;;;;;;;;;;;;;5077723;28;6998;-67
2022/12/04 15:55:38;;;;;;;;;;;;;;;;;;5074310;28;6817;-68
2022/12/04 15:58:36;;;;;;;;;;;;;;;;;;5077397;28;6971;-68
2022/12/04 16:01:06;;;;;;;;;;;;;;;;;;5077541;28;7410;-67
2022/12/04 16:09:29;;;;;;;;;;;;;;;;;;5077498;28;6969;-68
2022/12/04 16:12:04;;;;;;;;;;;;;;;;;;5077132;28;7268;-67
2022/12/04 16:14:30;;;;;;;;;;;;;;;;;;5077423;28;7217;-68
2022/12/04 16:23:02;;;;;;;;;;;;;;;;;;5076801;28;6836;-68
2022/12/04 16:25:37;;;;;;;;;;;;;;;;;;5077440;28;7449;-68
2022/12/04 16:28:03;;;;;;;;;;;;;;;;;;5077087;28;7398;-68
2022/12/04 16:30:50;;;;;;;;;;;;;;;;;;5077021;28;6964;-68
2022/12/04 16:33:16;;;;;;;;;;;;;;;;;;5077972;28;7058;-68
2022/12/04 16:35:56;;;;;;;;;;;;;;;;;;5076942;28;7191;-68
2022/12/04 16:41:14;;;;;;;;;;;;;;;;;;5076922;28;6937;-68
2022/12/04 16:43:40;;;;;;;;;;;;;;;;;;5076533;28;6998;-68
2022/12/04 16:46:28;;;;;;;;;;;;;;;;;;5076708;28;6897;-68
2022/12/04 16:48:54;;;;;;;;;;;;;;;;;;5074481;28;8443;-68
2022/12/04 16:51:21;;;;;;;;;;;;;;;;;;5058599;28;7168;-68
2022/12/04 16:53:49;;;;;;;;;;;;;;;;;;5076608;28;7552;-68
2022/12/04 16:59:46;;;;;;;;;;;;;;;;;;5076157;28;6929;-68
2022/12/04 17:02:18;;;;;;;;;;;;;;;;;;5076444;28;6957;-68
2022/12/04 17:04:43;;;;;;;;;;;;;;;;;;5076426;28;7018;-68
2022/12/04 17:07:11;;;;;;;;;;;;;;;;;;5076327;28;7054;-68
2022/12/04 17:09:36;;;;;;;;;;;;;;;;;;5076166;28;7051;-68
2022/12/04 17:12:02;;;;;;;;;;;;;;;;;;5076240;28;7127;-68
2022/12/04 17:14:40;;;;;;;;;;;;;;;;;;5076237;28;7110;-68
2022/12/04 17:17:06;;;;;;;;;;;;;;;;;;5076074;28;6955;-68
2022/12/04 17:19:31;;;;;;;;;;;;;;;;;;5075806;28;7181;-68
2022/12/04 17:22:00;;;;;;;;;;;;;;;;;;5075960;28;7214;-68
2022/12/04 17:24:25;;;;;;;;;;;;;;;;;;5075014;28;7386;-68
2022/12/04 17:29:54;;;;;;;;;;;;;;;;;;5075626;28;6681;-68
2022/12/04 17:32:20;;;;;;;;;;;;;;;;;;5075728;28;7235;-68
2022/12/04 17:34:48;;;;;;;;;;;;;;;;;;5057556;28;8795;-68
2022/12/04 17:37:13;;;;;;;;;;;;;;;;;;5075699;28;7190;-68
2022/12/04 17:39:41;;;;;;;;;;;;;;;;;;5075642;28;7009;-68
2022/12/04 17:42:15;;;;;;;;;;;;;;;;;;5075178;28;7136;-68
2022/12/04 17:44:41;;;;;;;;;;;;;;;;;;5075711;28;7106;-68
2022/12/04 17:50:23;;;;;;;;;;;;;;;;;;5075216;28;6677;-68
2022/12/04 17:52:49;;;;;;;;;;;;;;;;;;5075060;28;6988;-68
2022/12/04 17:55:16;;;;;;;;;;;;;;;;;;5075325;28;7102;-68
2022/12/04 17:57:41;;;;;;;;;;;;;;;;;;5075503;28;7056;-68
2022/12/04 18:00:07;;;;;;;;;;;;;;;;;;5074790;28;7304;-68
2022/12/04 18:02:32;;;;;;;;;;;;;;;;;;5074876;28;7123;-68
2022/12/04 18:11:14;;;;;;;;;;;;;;;;;;5074756;28;6696;-67
2022/12/04 18:13:40;;;;;;;;;;;;;;;;;;5075103;28;6992;-67
2022/12/04 18:16:08;;;;;;;;;;;;;;;;;;5074848;28;7113;-68
2022/12/04 18:18:34;;;;;;;;;;;;;;;;;;5075116;28;6823;-68
2022/12/04 18:21:26;;;;;;;;;;;;;;;;;;5074839;28;7185;-68
2022/12/04 18:23:55;;;;;;;;;;;;;;;;;;5074284;28;6987;-68
2022/12/04 18:29:22;;;;;;;;;;;;;;;;;;5073021;28;7057;-68
2022/12/04 18:31:53;;;;;;;;;;;;;;;;;;5073940;28;7068;-68
2022/12/04 18:34:20;;;;;;;;;;;;;;;;;;5074634;28;7203;-68
2022/12/04 18:36:50;;;;;;;;;;;;;;;;;;5071817;28;7056;-68
2022/12/04 18:39:18;;;;;;;;;;;;;;;;;;5068442;28;7093;-68
2022/12/04 18:41:45;;;;;;;;;;;;;;;;;;5070477;28;7176;-67
2022/12/04 18:44:26;;;;;;;;;;;;;;;;;;5072672;28;7135;-67
2022/12/04 18:46:52;;;;;;;;;;;;;;;;;;5054009;28;9016;-67
2022/12/04 18:49:19;;;;;;;;;;;;;;;;;;5056018;28;7183;-68
2022/12/04 18:51:46;;;;;;;;;;;;;;;;;;5051453;28;8412;-68
2022/12/04 18:54:16;;;;;;;;;;;;;;;;;;5056128;28;7120;-68
2022/12/04 18:56:54;;;;;;;;;;;;;;;;;;5074039;28;7053;-68
2022/12/04 18:59:22;;;;;;;;;;;;;;;;;;5074118;28;7130;-68
2022/12/04 19:10:50;;;;;;;;;;;;;;;;;;5074658;28;6994;-68
2022/12/04 19:13:23;;;;;;;;;;;;;;;;;;5069198;28;7165;-69
2022/12/04 19:15:49;;;;;;;;;;;;;;;;;;5078160;28;7235;-68
2022/12/04 19:30:26;;;;;;;;;;;;;;;;;;5078168;28;6928;-68
2022/12/04 19:32:51;;;;;;;;;;;;;;;;;;5078281;28;7093;-68
2022/12/04 19:38:25;;;;;;;;;;;;;;;;;;5077882;28;6744;-68
2022/12/04 19:41:15;;;;;;;;;;;;;;;;;;5076635;28;7064;-68
2022/12/04 19:43:42;;;;;;;;;;;;;;;;;;5078456;28;6962;-68
2022/12/04 19:49:11;;;;;;;;;;;;;;;;;;5078692;28;6952;-68
2022/12/04 19:51:38;;;;;;;;;;;;;;;;;;5077524;28;7436;-68
2022/12/04 19:54:05;;;;;;;;;;;;;;;;;;5077778;28;7138;-68
2022/12/04 19:59:57;;;;;;;;;;;;;;;;;;5077401;28;6968;-68
2022/12/04 20:02:23;;;;;;;;;;;;;;;;;;5077486;28;6978;-68
2022/12/04 20:07:39;;;;;;;;;;;;;;;;;;5077426;28;6969;-68
2022/12/04 20:10:05;;;;;;;;;;;;;;;;;;5077364;28;7236;-68
2022/12/04 20:12:31;;;;;;;;;;;;;;;;;;5077746;28;7335;-68
2022/12/04 20:14:56;;;;;;;;;;;;;;;;;;5077287;28;7219;-68
2022/12/04 20:17:22;;;;;;;;;;;;;;;;;;5076936;28;7792;-68
2022/12/04 20:19:48;;;;;;;;;;;;;;;;;;5076627;28;7122;-68
2022/12/04 20:22:13;;;;;;;;;;;;;;;;;;5077566;28;7562;-68
2022/12/04 20:24:39;;;;;;;;;;;;;;;;;;5074884;28;7002;-68